createdAt,value
2023-03-21T00:02:57.692Z,100529.59
2023-03-21T00:06:03.564Z,100520.59
2023-03-21T00:09:10.215Z,100515.28
2023-03-21T00:12:15.223Z,100517.25
2023-03-21T00:15:20.553Z,100520.84
2023-03-21T00:18:25.816Z,100509.25
2023-03-21T00:21:46.629Z,100514.63
2023-03-21T00:25:00.678Z,100499.41
2023-03-21T00:28:08.594Z,100509.50
2023-03-21T00:31:12.130Z,100471.59
2023-03-21T00:34:14.942Z,100501.50
2023-03-21T00:37:27.876Z,100493.44
2023-03-21T00:40:40.422Z,100494.47
2023-03-21T00:43:43.572Z,100492.00
2023-03-21T00:47:00.871Z,100492.19
2023-03-21T00:50:10.398Z,100486.88
2023-03-21T00:53:16.903Z,100489.75
2023-03-21T00:56:20.960Z,100455.03
2023-03-21T00:59:23.638Z,100470.91
2023-03-21T01:02:26.752Z,100462.91
2023-03-21T01:05:45.928Z,100469.28
2023-03-21T01:08:54.699Z,100462.22
2023-03-21T01:11:58.844Z,100460.44
2023-03-21T01:15:01.979Z,100453.22
2023-03-21T01:18:05.055Z,100457.81
2023-03-21T01:21:10.779Z,100468.72
2023-03-21T01:24:13.435Z,100463.41
2023-03-21T01:27:18.035Z,100463.53
2023-03-21T01:30:24.000Z,100459.19
2023-03-21T01:33:30.298Z,100464.72
2023-03-21T01:36:33.272Z,100466.72
2023-03-21T01:39:36.056Z,100462.38
2023-03-21T01:42:40.261Z,100469.78
2023-03-21T01:46:27.313Z,100462.88
2023-03-21T01:49:36.165Z,100463.75
2023-03-21T01:52:41.609Z,100461.16
2023-03-21T01:55:44.638Z,100454.13
2023-03-21T01:58:50.536Z,100457.88
2023-03-21T02:01:53.437Z,100452.63
2023-03-21T02:05:04.509Z,100459.91
2023-03-21T02:08:10.465Z,100452.81
2023-03-21T02:11:13.307Z,100442.09
2023-03-21T02:14:28.387Z,100439.59
2023-03-21T02:17:37.580Z,100429.13
2023-03-21T02:21:19.901Z,100441.59
2023-03-21T02:25:01.488Z,100430.03
2023-03-21T02:28:12.765Z,100439.09
2023-03-21T02:31:37.434Z,100436.66
2023-03-21T02:35:04.052Z,100437.78
2023-03-21T02:38:11.860Z,100437.91
2023-03-21T02:41:25.389Z,100434.47
2023-03-21T02:44:43.542Z,100434.69
2023-03-21T02:47:49.917Z,100437.69
2023-03-21T02:50:55.151Z,100423.53
2023-03-21T02:54:28.174Z,100420.13
2023-03-21T02:57:33.770Z,100429.41
2023-03-21T03:00:46.081Z,100430.41
2023-03-21T03:03:51.891Z,100430.50
2023-03-21T03:07:16.292Z,100423.53
2023-03-21T03:10:33.721Z,100433.56
2023-03-21T03:13:53.829Z,100428.44
2023-03-21T03:17:05.120Z,100428.75
2023-03-21T03:23:44.391Z,100421.34
2023-03-21T03:26:52.453Z,100424.28
2023-03-21T03:29:58.831Z,100426.34
2023-03-21T03:33:03.261Z,100428.16
2023-03-21T03:36:10.974Z,100430.09
2023-03-21T03:39:17.236Z,100434.84
2023-03-21T03:42:28.677Z,100436.75
2023-03-21T03:45:36.047Z,100434.06
2023-03-21T03:48:46.753Z,100427.81
2023-03-21T03:51:56.552Z,100436.41
2023-03-21T03:54:59.984Z,100435.97
2023-03-21T03:58:06.418Z,100393.75
2023-03-21T04:01:14.220Z,100436.47
2023-03-21T04:04:17.705Z,100433.00
2023-03-21T04:07:21.812Z,100432.25
2023-03-21T04:10:24.924Z,100425.19
2023-03-21T04:13:29.153Z,100434.28
2023-03-21T04:16:35.554Z,100438.16
2023-03-21T04:19:41.058Z,100437.53
2023-03-21T04:22:43.947Z,100436.88
2023-03-21T04:25:57.085Z,100436.97
2023-03-21T04:29:02.199Z,100438.81
2023-03-21T04:32:06.267Z,100440.59
2023-03-21T04:35:10.731Z,100443.19
2023-03-21T04:38:13.682Z,100445.78
2023-03-21T04:41:16.392Z,100447.59
2023-03-21T04:44:20.921Z,100446.53
2023-03-21T04:47:24.062Z,100437.72
2023-03-21T04:50:26.717Z,100426.97
2023-03-21T04:53:29.429Z,100428.09
2023-03-21T04:56:33.980Z,100418.41
2023-03-21T04:59:41.388Z,100427.56
2023-03-21T05:02:44.051Z,100431.25
2023-03-21T05:05:48.339Z,100432.31
2023-03-21T05:08:50.978Z,100423.41
2023-03-21T05:11:53.736Z,100422.50
2023-03-21T05:14:57.709Z,100423.56
2023-03-21T05:18:11.549Z,100423.63
2023-03-21T05:21:18.108Z,100438.00
2023-03-21T05:24:25.265Z,100445.31
2023-03-21T05:27:36.982Z,100436.47
2023-03-21T05:30:41.506Z,100436.44
2023-03-21T05:33:48.234Z,100436.47
2023-03-21T05:36:51.004Z,100431.06
2023-03-21T05:39:54.094Z,100437.28
2023-03-21T05:42:56.893Z,100439.09
2023-03-21T05:46:01.063Z,100438.13
2023-03-21T05:49:03.697Z,100436.41
2023-03-21T05:52:06.929Z,100433.84
2023-03-21T05:55:24.846Z,100449.13
2023-03-21T05:58:27.860Z,100441.91
2023-03-21T06:01:37.445Z,100439.22
2023-03-21T06:04:40.343Z,100445.22
2023-03-21T06:07:47.394Z,100416.22
2023-03-21T06:10:50.068Z,100449.00
2023-03-21T06:13:52.973Z,100449.69
2023-03-21T06:16:57.035Z,100446.09
2023-03-21T06:20:01.118Z,100443.31
2023-03-21T06:23:03.827Z,100448.34
2023-03-21T06:26:07.059Z,100438.59
2023-03-21T06:29:09.738Z,100437.28
2023-03-21T06:32:14.372Z,100418.25
2023-03-21T06:35:17.046Z,100418.03
2023-03-21T06:38:19.842Z,100418.25
2023-03-21T06:41:22.564Z,100420.81
2023-03-21T06:44:25.659Z,100424.88
2023-03-21T06:47:32.818Z,100431.50
2023-03-21T06:50:35.925Z,100430.84
2023-03-21T06:53:39.034Z,100434.59
2023-03-21T06:56:42.216Z,100440.69
2023-03-21T06:59:44.936Z,100430.59
2023-03-21T07:02:51.148Z,100395.34
2023-03-21T07:05:54.009Z,100438.53
2023-03-21T07:08:57.010Z,100437.44
2023-03-21T07:11:59.655Z,100445.56
2023-03-21T07:15:03.028Z,100434.03
2023-03-21T07:18:08.086Z,100435.03
2023-03-21T07:21:11.333Z,100430.59
2023-03-21T07:24:14.066Z,100432.28
2023-03-21T07:27:17.520Z,100433.03
2023-03-21T07:30:20.563Z,100423.94
2023-03-21T07:33:26.038Z,100422.00
2023-03-21T07:36:28.804Z,100420.88
2023-03-21T07:39:34.541Z,100422.59
2023-03-21T07:42:37.342Z,100410.63
2023-03-21T07:45:40.865Z,100411.31
2023-03-21T07:48:45.131Z,100411.56
2023-03-21T07:51:47.977Z,100384.09
2023-03-21T07:54:50.647Z,100412.25
2023-03-21T07:57:53.999Z,100411.00
2023-03-21T08:00:57.285Z,100396.31
2023-03-21T08:04:01.653Z,100399.94
2023-03-21T08:07:04.391Z,100400.38
2023-03-21T08:10:08.270Z,100391.81
2023-03-21T08:13:11.076Z,100391.38
2023-03-21T08:16:13.856Z,100377.22
2023-03-21T08:19:18.859Z,100374.31
2023-03-21T08:22:21.690Z,100375.44
2023-03-21T08:25:24.536Z,100362.75
2023-03-21T08:28:33.370Z,100365.63
2023-03-21T08:31:36.285Z,100360.44
2023-03-21T08:34:42.864Z,100357.94
2023-03-21T08:37:45.808Z,100352.81
2023-03-21T08:40:48.464Z,100353.88
2023-03-21T08:43:51.416Z,100358.34
2023-03-21T08:46:54.306Z,100347.16
2023-03-21T08:49:59.273Z,100355.78
2023-03-21T08:53:02.000Z,100350.50
2023-03-21T08:56:04.858Z,100352.47
2023-03-21T08:59:10.057Z,100346.50
2023-03-21T09:02:15.744Z,100335.09
2023-03-21T09:05:20.399Z,100321.53
2023-03-21T09:08:24.018Z,100325.34
2023-03-21T09:11:26.808Z,100317.91
2023-03-21T09:14:29.615Z,100309.78
2023-03-21T09:17:33.132Z,100313.69
2023-03-21T09:20:38.357Z,100309.88
2023-03-21T09:23:41.503Z,100302.09
2023-03-21T09:26:44.629Z,100304.84
2023-03-21T09:29:48.375Z,100299.78
2023-03-21T09:32:52.584Z,100296.56
2023-03-21T09:35:57.876Z,100260.25
2023-03-21T09:39:00.795Z,100283.88
2023-03-21T09:42:19.865Z,100277.59
2023-03-21T09:45:30.962Z,100278.22
2023-03-21T09:48:50.564Z,100267.34
2023-03-21T09:52:05.417Z,100267.78
2023-03-21T09:55:20.064Z,100261.16
2023-03-21T09:58:28.080Z,100253.31
2023-03-21T10:01:34.548Z,100255.94
2023-03-21T10:04:37.608Z,100251.56
2023-03-21T10:07:47.788Z,100250.25
2023-03-21T10:10:52.930Z,100263.56
2023-03-21T10:14:00.472Z,100255.09
2023-03-21T10:17:10.425Z,100257.38
2023-03-21T10:20:17.499Z,100252.72
2023-03-21T10:23:26.650Z,100257.13
2023-03-21T10:26:31.008Z,100243.56
2023-03-21T10:29:42.224Z,100254.41
2023-03-21T10:32:45.038Z,100245.75
2023-03-21T10:35:52.317Z,100246.06
2023-03-21T10:39:01.702Z,100242.34
2023-03-21T10:42:04.893Z,100239.19
2023-03-21T10:45:16.492Z,100244.03
2023-03-21T10:48:20.220Z,100237.13
2023-03-21T10:51:28.140Z,100245.53
2023-03-21T10:54:33.752Z,100246.78
2023-03-21T10:57:38.044Z,100240.63
2023-03-21T11:00:43.372Z,100234.72
2023-03-21T11:03:48.260Z,100248.59
2023-03-21T11:06:54.901Z,100238.22
2023-03-21T11:10:00.476Z,100242.28
2023-03-21T11:13:08.955Z,100240.06
2023-03-21T11:16:13.681Z,100238.63
2023-03-21T11:19:18.716Z,100238.72
2023-03-21T11:22:23.652Z,100240.88
2023-03-21T11:25:36.285Z,100234.84
2023-03-21T11:28:41.557Z,100209.63
2023-03-21T11:31:44.892Z,100224.78
2023-03-21T11:34:49.605Z,100219.59
2023-03-21T11:37:54.475Z,100215.75
2023-03-21T11:41:02.094Z,100215.31
2023-03-21T11:44:06.382Z,100212.34
2023-03-21T11:47:11.463Z,100204.13
2023-03-21T11:50:28.081Z,100205.75
2023-03-21T11:53:39.625Z,100201.97
2023-03-21T11:56:50.109Z,100198.44
2023-03-21T12:00:02.169Z,100191.72
2023-03-21T12:03:23.820Z,100200.91
2023-03-21T12:06:31.274Z,100194.25
2023-03-21T12:09:43.738Z,100194.16
2023-03-21T12:12:56.492Z,100188.41
2023-03-21T12:16:08.888Z,100190.03
2023-03-21T12:19:43.057Z,100181.94
2023-03-21T12:22:58.031Z,100181.06
2023-03-21T12:26:11.345Z,100186.00
2023-03-21T12:29:27.444Z,100181.75
2023-03-21T12:32:45.452Z,100184.16
2023-03-21T12:36:03.939Z,100148.91
2023-03-21T12:39:21.069Z,100172.53
2023-03-21T12:42:46.388Z,100171.47
2023-03-21T12:45:54.795Z,100175.44
2023-03-21T12:49:02.620Z,100177.44
2023-03-21T12:52:09.972Z,100180.06
2023-03-21T12:55:19.503Z,100178.84
2023-03-21T12:58:28.307Z,100137.31
2023-03-21T13:01:36.435Z,100179.16
2023-03-21T13:04:46.825Z,100173.28
2023-03-21T13:07:53.563Z,100154.34
2023-03-21T13:10:59.519Z,100174.69
2023-03-21T13:14:07.111Z,100177.31
2023-03-21T13:17:20.512Z,100176.75
2023-03-21T13:20:28.267Z,100182.34
2023-03-21T13:23:36.799Z,100165.03
2023-03-21T13:26:41.745Z,100177.22
2023-03-21T13:29:49.786Z,100166.25
2023-03-21T13:33:05.637Z,100169.78
2023-03-21T13:36:10.080Z,100166.22
2023-03-21T13:39:19.360Z,100159.63
2023-03-21T13:42:31.756Z,100162.59
2023-03-21T13:45:46.244Z,100156.91
2023-03-21T13:49:02.191Z,100150.66
2023-03-21T13:52:28.021Z,100145.00
2023-03-21T13:55:36.692Z,100147.19
2023-03-21T13:58:41.049Z,100148.06
2023-03-21T14:01:59.957Z,100148.84
2023-03-21T14:05:18.617Z,100138.75
2023-03-21T14:08:36.494Z,100142.03
2023-03-21T14:11:44.461Z,100140.31
2023-03-21T14:14:54.103Z,100135.50
2023-03-21T14:17:59.982Z,100136.03
2023-03-21T14:21:07.104Z,100150.31
2023-03-21T14:24:14.461Z,100140.13
2023-03-21T14:27:17.655Z,100131.03
2023-03-21T14:30:25.528Z,100140.50
2023-03-21T14:33:32.391Z,100128.66
2023-03-21T14:36:45.772Z,100124.19
2023-03-21T14:40:00.393Z,100138.53
2023-03-21T14:43:06.822Z,100119.94
2023-03-21T14:46:14.386Z,100141.91
2023-03-21T14:49:23.389Z,100136.38
2023-03-21T14:52:31.217Z,100139.09
2023-03-21T14:55:34.736Z,100134.63
2023-03-21T14:58:40.288Z,100134.94
2023-03-21T15:01:45.733Z,100138.22
2023-03-21T15:04:51.563Z,100138.03
2023-03-21T15:07:58.190Z,100147.47
2023-03-21T15:11:07.511Z,100139.94
2023-03-21T15:14:15.768Z,100133.41
2023-03-21T15:17:19.027Z,100144.66
2023-03-21T15:20:23.621Z,100138.09
2023-03-21T15:23:31.473Z,100139.69
2023-03-21T15:26:34.274Z,100142.09
2023-03-21T15:29:37.842Z,100146.09
2023-03-21T15:32:40.960Z,100144.13
2023-03-21T15:35:47.029Z,100130.38
2023-03-21T15:38:51.838Z,100133.34
2023-03-21T15:41:59.965Z,100131.13
2023-03-21T15:45:20.700Z,100135.78
2023-03-21T15:48:27.079Z,100132.50
2023-03-21T15:51:29.808Z,100115.88
2023-03-21T15:54:37.083Z,100101.16
2023-03-21T15:57:47.444Z,100099.59
2023-03-21T16:00:55.120Z,100118.19
2023-03-21T16:04:01.947Z,100118.44
2023-03-21T16:07:15.565Z,100121.28
2023-03-21T16:10:29.557Z,100123.41
2023-03-21T16:13:32.216Z,100130.16
2023-03-21T16:16:35.037Z,100138.19
2023-03-21T16:19:37.943Z,100143.47
2023-03-21T16:22:40.688Z,100136.63
2023-03-21T16:25:45.800Z,100138.03
2023-03-21T16:28:49.189Z,100139.00
2023-03-21T16:31:51.843Z,100147.34
2023-03-21T16:34:54.641Z,100134.50
2023-03-21T16:37:57.369Z,100122.78
2023-03-21T16:41:04.290Z,100128.47
2023-03-21T16:44:07.288Z,100120.56
2023-03-21T16:47:15.662Z,100119.94
2023-03-21T16:50:26.768Z,100117.16
2023-03-21T16:53:29.460Z,100115.69
2023-03-21T16:56:39.725Z,100097.84
2023-03-21T16:59:42.879Z,100087.84
2023-03-21T17:02:48.722Z,100080.75
2023-03-21T17:05:54.341Z,100092.25
2023-03-21T17:08:58.549Z,100095.53
2023-03-21T17:12:03.139Z,100107.25
2023-03-21T17:15:06.782Z,100113.63
2023-03-21T17:18:11.357Z,100121.44
2023-03-21T17:21:15.932Z,100132.47
2023-03-21T17:24:21.466Z,100122.09
2023-03-21T17:27:25.870Z,100129.50
2023-03-21T17:30:31.362Z,100127.03
2023-03-21T17:33:35.464Z,100122.72
2023-03-21T17:36:39.864Z,100119.38
2023-03-21T17:39:43.005Z,100120.53
2023-03-21T17:42:47.428Z,100116.00
2023-03-21T17:45:51.011Z,100103.31
2023-03-21T17:48:54.308Z,100097.28
2023-03-21T17:51:56.998Z,100072.16
2023-03-21T17:55:06.996Z,100084.13
2023-03-21T17:58:12.926Z,100122.00
2023-03-21T18:01:18.089Z,100129.81
2023-03-21T18:04:21.009Z,100135.16
2023-03-21T18:07:54.508Z,100143.44
2023-03-21T18:10:50.767Z,100151.09
2023-03-21T18:14:10.254Z,100143.09
2023-03-21T18:17:19.301Z,100134.97
2023-03-21T18:20:50.322Z,100128.94
2023-03-21T18:23:52.470Z,100126.31
2023-03-21T18:26:55.151Z,100117.38
2023-03-21T18:30:31.897Z,100116.81
2023-03-21T18:33:34.926Z,100115.94
2023-03-21T18:36:38.081Z,100114.31
2023-03-21T18:39:45.679Z,100123.25
2023-03-21T18:43:41.451Z,100126.53
2023-03-21T18:46:16.403Z,100125.91
2023-03-21T18:52:42.129Z,100135.41
2023-03-21T18:55:47.638Z,100141.41
2023-03-21T18:58:51.040Z,100153.00
2023-03-21T19:01:55.219Z,100146.84
2023-03-21T19:04:58.780Z,100147.31
2023-03-21T19:08:04.497Z,100148.97
2023-03-21T19:11:08.692Z,100148.47
2023-03-21T19:14:12.240Z,100156.13
2023-03-21T19:18:11.343Z,100157.97
2023-03-21T19:20:40.115Z,100147.72
2023-03-21T19:24:20.736Z,100146.97
2023-03-21T19:27:05.929Z,100146.31
2023-03-21T19:30:15.064Z,100144.78
2023-03-21T19:33:21.073Z,100136.78
2023-03-21T19:36:23.892Z,100131.38
2023-03-21T19:39:27.393Z,100132.72
2023-03-21T19:42:30.967Z,100142.59
2023-03-21T19:45:34.125Z,100145.91
2023-03-21T19:48:43.511Z,100141.44
2023-03-21T19:51:46.753Z,100146.31
2023-03-21T19:54:49.673Z,100151.94
2023-03-21T19:57:53.661Z,100150.03
2023-03-21T20:00:56.390Z,100153.75
2023-03-21T20:04:00.793Z,100155.50
2023-03-21T20:07:03.445Z,100157.69
2023-03-21T20:10:08.964Z,100151.25
2023-03-21T20:13:11.671Z,100156.00
2023-03-21T20:16:14.552Z,100155.44
2023-03-21T20:19:20.216Z,100126.75
2023-03-21T20:22:35.995Z,100156.97
2023-03-21T20:25:47.379Z,100154.00
2023-03-21T20:29:27.913Z,100164.41
2023-03-21T20:32:19.988Z,100157.31
2023-03-21T20:35:52.109Z,100154.75
2023-03-21T20:38:47.133Z,100150.41
2023-03-21T20:41:49.851Z,100155.81
2023-03-21T20:44:59.091Z,100155.59
2023-03-21T20:48:04.023Z,100155.63
2023-03-21T20:52:07.501Z,100155.00
2023-03-21T20:54:34.818Z,100164.03
2023-03-21T20:57:40.742Z,100156.97
2023-03-21T21:00:44.845Z,100168.66
2023-03-21T21:03:49.839Z,100171.78
2023-03-21T21:06:53.884Z,100174.78
2023-03-21T21:09:57.198Z,100163.88
2023-03-21T21:12:59.873Z,100168.09
2023-03-21T21:16:02.808Z,100156.00
2023-03-21T21:19:11.157Z,100154.75
2023-03-21T21:22:15.405Z,100157.19
2023-03-21T21:25:18.869Z,100147.22
2023-03-21T21:28:23.174Z,100136.44
2023-03-21T21:31:27.193Z,100134.91
2023-03-21T21:34:30.382Z,100143.44
2023-03-21T21:37:37.542Z,100148.25
2023-03-21T21:40:42.970Z,100147.59
2023-03-21T21:43:45.936Z,100155.47
2023-03-21T21:46:57.449Z,100145.81
2023-03-21T21:50:03.302Z,100140.66
2023-03-21T21:53:12.170Z,100146.94
2023-03-21T21:56:15.227Z,100132.25
2023-03-21T21:59:17.888Z,100145.81
2023-03-21T22:02:23.709Z,100139.88
2023-03-21T22:05:27.027Z,100143.50
2023-03-21T22:08:31.104Z,100141.63
2023-03-21T22:11:33.841Z,100141.53
2023-03-21T22:14:40.916Z,100138.53
2023-03-21T22:17:43.621Z,100142.53
2023-03-21T22:20:46.643Z,100142.91
2023-03-21T22:23:50.701Z,100135.75
2023-03-21T22:26:57.834Z,100133.13
2023-03-21T22:30:04.454Z,100137.50
2023-03-21T22:33:09.959Z,100134.69
2023-03-21T22:36:13.263Z,100133.88
2023-03-21T22:39:17.766Z,100141.28
2023-03-21T22:42:20.644Z,100140.50
2023-03-21T22:45:23.398Z,100139.09
2023-03-21T22:48:34.786Z,100131.09
2023-03-21T22:51:37.455Z,100139.94
2023-03-21T22:54:41.588Z,100143.41
2023-03-21T22:57:44.270Z,100140.56
2023-03-21T23:00:47.284Z,100136.41
2023-03-21T23:03:50.004Z,100143.31
2023-03-21T23:06:52.870Z,100139.06
2023-03-21T23:09:57.682Z,100142.56
2023-03-21T23:13:00.404Z,100142.44
2023-03-21T23:16:06.826Z,100148.25
2023-03-21T23:19:10.449Z,100150.59
2023-03-21T23:22:13.139Z,100156.34
2023-03-21T23:25:20.363Z,100161.41
2023-03-21T23:28:23.170Z,100151.22
2023-03-21T23:31:27.885Z,100147.47
2023-03-21T23:34:31.585Z,100143.94
2023-03-21T23:37:34.336Z,100138.69
2023-03-21T23:40:41.189Z,100136.97
2023-03-21T23:43:44.472Z,100131.41
2023-03-21T23:46:53.348Z,100134.13
2023-03-21T23:49:56.014Z,100131.41
2023-03-21T23:53:05.986Z,100126.31
2023-03-21T23:56:14.342Z,100138.19
2023-03-21T23:59:17.033Z,100119.41
